Time;durP1;ratioP1;P1;durP2;ratioP2;P2;SDS_P1;SDS_P2;PMS_P1;PMS_P2;Temp;Humidity;BMP_temperature;BMP_pressure;BME280_temperature;BME280_humidity;BME280_pressure;Samples;Min_cycle;Max_cycle;Signal;HPM_P1;HPM_P2
2021/12/12 00:02:10;;;;;;;169.35;75.80;;;;;;;-6.12;77.11;101807.52;1823814;78;21734;-81
2021/12/12 00:04:38;;;;;;;166.20;76.20;;;;;;;-6.17;77.13;101809.95;1823548;78;22851;-81
2021/12/12 00:07:09;;;;;;;175.57;75.72;;;;;;;-6.16;77.25;101811.75;1803085;78;21006;-81
2021/12/12 00:09:49;;;;;;;169.70;75.55;;;;;;;-6.19;77.16;101816.91;1823553;77;21050;-81
2021/12/12 00:12:20;;;;;;;160.25;74.40;;;;;;;-6.18;77.31;101820.02;1823444;77;21120;-81
2021/12/12 00:14:47;;;;;;;159.52;70.57;;;;;;;-6.18;77.37;101821.30;1822476;77;21881;-82
2021/12/12 00:17:13;;;;;;;147.35;69.15;;;;;;;-6.21;77.29;101818.05;1823174;77;21050;-81
2021/12/12 00:19:42;;;;;;;150.15;67.92;;;;;;;-6.21;77.24;101813.27;1823175;77;21038;-82
2021/12/12 00:22:15;;;;;;;156.32;71.60;;;;;;;-6.25;77.19;101814.59;1823147;78;21054;-81
2021/12/12 00:24:42;;;;;;;151.80;68.92;;;;;;;-6.30;77.16;101811.54;1823210;77;21124;-81
2021/12/12 00:27:09;;;;;;;161.70;71.95;;;;;;;-6.34;77.19;101816.18;1823231;77;21737;-81
2021/12/12 00:29:36;;;;;;;156.95;71.30;;;;;;;-6.37;77.26;101813.27;1822711;78;21051;-81
2021/12/12 00:32:08;;;;;;;173.55;77.87;;;;;;;-6.39;77.32;101819.50;1822703;78;21105;-81
2021/12/12 00:34:42;;;;;;;193.10;82.30;;;;;;;-6.39;77.39;101817.32;1822977;77;21062;-81
2021/12/12 00:37:09;;;;;;;173.62;79.22;;;;;;;-6.36;77.56;101824.97;1823190;77;21049;-81
2021/12/12 00:39:39;;;;;;;166.12;74.17;;;;;;;-6.34;77.63;101820.92;1823004;77;22562;-81
2021/12/12 00:42:12;;;;;;;173.15;76.30;;;;;;;-6.33;77.55;101826.95;1823163;78;21042;-80
2021/12/12 00:44:41;;;;;;;163.22;73.72;;;;;;;-6.35;77.50;101824.59;1803143;78;21560;-81
2021/12/12 00:47:09;;;;;;;172.15;76.35;;;;;;;-6.38;77.41;101831.93;1823349;77;21065;-81
2021/12/12 00:49:36;;;;;;;170.43;76.47;;;;;;;-6.36;77.52;101841.97;1823191;77;21129;-81
2021/12/12 00:52:05;;;;;;;175.80;75.35;;;;;;;-6.38;77.42;101842.17;1822933;77;21713;-81
2021/12/12 00:54:31;;;;;;;172.45;72.47;;;;;;;-6.40;77.32;101839.47;1802431;78;21643;-80
2021/12/12 00:57:05;;;;;;;161.40;71.57;;;;;;;-6.42;77.35;101846.05;1823070;77;21057;-81
2021/12/12 00:59:31;;;;;;;169.57;72.17;;;;;;;-6.43;77.29;101847.19;1823384;77;21161;-81
2021/12/12 01:01:58;;;;;;;171.50;71.85;;;;;;;-6.47;77.28;101849.78;1823150;77;21177;-81
2021/12/12 01:04:29;;;;;;;172.80;73.10;;;;;;;-6.50;77.35;101854.17;1823370;77;22571;-81
2021/12/12 01:06:58;;;;;;;172.80;74.12;;;;;;;-6.50;77.41;101857.12;1822518;78;21045;-81
2021/12/12 01:09:29;;;;;;;162.45;70.30;;;;;;;-6.50;77.48;101854.17;1803172;78;21057;-81
2021/12/12 01:12:00;;;;;;;164.50;68.00;;;;;;;-6.49;77.41;101860.23;1823357;77;21062;-81
2021/12/12 01:14:31;;;;;;;156.00;65.37;;;;;;;-6.47;77.54;101861.31;1823181;77;22170;-81
2021/12/12 01:17:09;;;;;;;173.15;66.75;;;;;;;-6.50;77.64;101851.61;1822911;77;21237;-81
2021/12/12 01:19:53;;;;;;;163.00;64.07;;;;;;;-6.40;77.61;101862.53;1823622;77;20983;-81
2021/12/12 01:22:28;;;;;;;164.37;66.42;;;;;;;-6.39;77.52;101872.40;1821809;77;21054;-83
2021/12/12 01:24:56;;;;;;;153.55;64.37;;;;;;;-6.38;77.58;101871.64;1822657;78;21089;-81
2021/12/12 01:27:23;;;;;;;156.37;64.45;;;;;;;-6.34;77.71;101869.60;1823232;78;21559;-81
2021/12/12 01:29:50;;;;;;;150.45;65.65;;;;;;;-6.25;77.84;101867.12;1823053;78;22568;-81
2021/12/12 01:32:30;;;;;;;149.00;62.53;;;;;;;-6.20;77.81;101871.48;1823046;78;21065;-81
2021/12/12 01:34:51;;;;;;;153.57;61.02;;;;;;;-6.19;77.71;101865.25;1821368;77;21305;-80
2021/12/12 01:37:35;;;;;;;151.18;63.17;;;;;;;-6.20;77.51;101859.95;1822645;77;21042;-80
2021/12/12 01:39:56;;;;;;;195.45;76.72;;;;;;;-6.51;77.47;101805.38;1820931;78;21062;-80
2021/12/12 01:42:33;;;;;;;182.17;68.07;;;;;;;-6.16;77.57;101868.13;1822888;77;21708;-80
2021/12/12 01:45:28;;;;;;;148.62;62.98;;;;;;;-6.13;77.61;101863.34;1822767;77;21575;-81
2021/12/12 01:48:05;;;;;;;154.42;60.95;;;;;;;-6.09;77.66;101864.59;1822739;77;21061;-81
2021/12/12 01:50:36;;;;;;;162.18;63.98;;;;;;;-6.07;77.68;101860.16;1822713;77;21042;-80
2021/12/12 01:53:06;;;;;;;162.45;69.00;;;;;;;-6.04;77.62;101858.67;1826713;77;21160;-80
2021/12/12 01:55:44;;;;;;;174.10;71.65;;;;;;;-6.01;77.56;101859.02;1828435;77;21790;-80
2021/12/12 01:58:17;;;;;;;148.10;59.93;;;;;;;-6.03;77.41;101847.69;1828853;77;21042;-79
2021/12/12 02:01:03;;;;;;;152.55;59.65;;;;;;;-6.04;77.37;101854.48;1812986;78;22221;-80
2021/12/12 02:03:33;;;;;;;152.15;55.48;;;;;;;-6.03;77.44;101847.69;1828663;77;21041;-80
2021/12/12 02:08:34;;;;;;;133.97;55.17;;;;;;;-5.95;77.50;101845.19;1771188;80;23798;-82
2021/12/12 02:11:05;;;;;;;133.75;51.18;;;;;;;-5.97;77.51;101845.41;1752765;81;21101;-81
2021/12/12 02:13:34;;;;;;;127.47;50.03;;;;;;;-5.96;77.46;101847.23;1752733;81;21956;-81
2021/12/12 02:16:01;;;;;;;144.02;50.40;;;;;;;-5.93;77.54;101850.45;1752808;81;21094;-81
2021/12/12 02:18:33;;;;;;;112.97;46.40;;;;;;;-5.95;77.45;101845.19;1752768;81;21097;-81
2021/12/12 02:21:21;;;;;;;130.65;48.28;;;;;;;-5.91;77.40;101851.19;1752327;81;21074;-81
2021/12/12 02:35:14;;;;;;;113.62;44.10;;;;;;;-5.40;78.18;101864.30;1752311;81;21461;-81
2021/12/12 02:37:36;;;;;;;102.85;41.08;;;;;;;-5.23;78.30;101866.46;1751411;81;21141;-81
2021/12/12 02:40:11;;;;;;;95.22;37.90;;;;;;;-5.10;78.37;101861.88;1752631;81;21755;-81
2021/12/12 02:42:37;;;;;;;86.50;37.67;;;;;;;-4.96;78.34;101862.02;1752416;81;21070;-80
2021/12/12 02:45:07;;;;;;;93.82;39.15;;;;;;;-4.84;78.29;101879.07;1753051;81;21539;-80
2021/12/12 02:47:35;;;;;;;93.60;41.15;;;;;;;-4.74;78.27;101880.58;1753256;81;21087;-81
2021/12/12 02:50:15;;;;;;;88.87;37.35;;;;;;;-4.63;78.30;101884.28;1753208;81;21098;-81
2021/12/12 02:52:47;;;;;;;81.92;36.95;;;;;;;-4.53;78.25;101885.36;1753195;81;21764;-81
2021/12/12 02:55:18;;;;;;;81.57;34.73;;;;;;;-4.43;78.21;101887.24;1753124;81;21074;-81
2021/12/12 02:57:45;;;;;;;78.70;34.85;;;;;;;-4.34;78.29;101893.30;1752697;81;21074;-81
2021/12/12 03:00:17;;;;;;;75.37;33.65;;;;;;;-4.24;78.30;101888.75;1753066;81;21098;-81
2021/12/12 03:02:46;;;;;;;77.00;33.95;;;;;;;-4.14;78.31;101886.34;1753169;81;21650;-81
2021/12/12 03:05:17;;;;;;;73.95;34.88;;;;;;;-4.03;78.39;101886.55;1752966;81;21774;-81
2021/12/12 03:07:44;;;;;;;69.12;32.67;;;;;;;-3.94;78.46;101887.09;1748250;81;21550;-81
2021/12/12 03:10:14;;;;;;;70.85;34.18;;;;;;;-3.82;78.52;101876.22;1745136;82;21094;-81
2021/12/12 03:12:41;;;;;;;71.47;32.15;;;;;;;-3.70;78.57;101886.44;1744769;82;21142;-81
2021/12/12 03:15:31;;;;;;;78.62;33.58;;;;;;;-3.61;78.53;101886.07;1745279;82;21572;-81
2021/12/12 03:18:00;;;;;;;75.72;32.85;;;;;;;-3.52;78.51;101880.55;1745016;82;21955;-81
2021/12/12 03:20:35;;;;;;;84.17;37.42;;;;;;;-3.45;78.46;101889.81;1744526;82;21079;-81
2021/12/12 03:23:21;;;;;;;79.45;36.70;;;;;;;-3.38;78.47;101891.30;1743938;82;21086;-81
2021/12/12 03:25:53;;;;;;;77.30;35.63;;;;;;;-3.30;78.43;101890.42;1744244;82;21560;-80
2021/12/12 03:28:22;;;;;;;72.97;34.45;;;;;;;-3.26;78.32;101891.63;1744538;82;21083;-81
2021/12/12 03:30:51;;;;;;;64.70;33.58;;;;;;;-3.19;78.40;101887.58;1744066;82;21753;-81
2021/12/12 03:33:18;;;;;;;75.80;34.45;;;;;;;-3.15;78.33;101895.78;1744085;82;21105;-80
2021/12/12 03:35:53;;;;;;;72.08;34.88;;;;;;;-3.09;78.30;101902.30;1743994;82;21384;-80
2021/12/12 03:38:21;;;;;;;68.15;32.58;;;;;;;-3.07;78.19;101899.48;1744007;82;21576;-81
2021/12/12 03:40:47;;;;;;;72.05;33.42;;;;;;;-3.04;78.24;101899.41;1744067;82;21099;-81
2021/12/12 03:43:14;;;;;;;73.15;38.33;;;;;;;-3.00;78.23;101893.80;1743930;82;21761;-80
2021/12/12 03:45:42;;;;;;;70.15;36.23;;;;;;;-2.96;78.08;101902.73;1743764;82;22149;-80
2021/12/12 03:48:20;;;;;;;73.00;34.65;;;;;;;-2.96;78.00;101900.16;1743926;82;22101;-80
2021/12/12 03:50:48;;;;;;;71.20;34.55;;;;;;;-2.97;77.91;101897.94;1743965;82;21559;-81
2021/12/12 03:53:15;;;;;;;78.90;35.90;;;;;;;-3.00;77.77;101898.95;1743932;82;21058;-80
2021/12/12 03:55:42;;;;;;;80.28;36.45;;;;;;;-3.02;77.72;101901.76;1744072;82;21697;-81
2021/12/12 03:58:09;;;;;;;80.00;37.17;;;;;;;-3.05;77.67;101904.02;1744119;81;21066;-81
2021/12/12 04:00:44;;;;;;;76.00;35.78;;;;;;;-3.08;77.56;101905.38;1744141;82;21086;-81
2021/12/12 04:03:11;;;;;;;73.47;36.38;;;;;;;-3.10;77.68;101903.94;1743940;82;21662;-80
2021/12/12 04:05:38;;;;;;;71.20;35.70;;;;;;;-3.08;77.75;101902.42;1744082;82;21067;-81
2021/12/12 04:08:04;;;;;;;73.67;34.98;;;;;;;-3.08;77.61;101902.81;1743852;82;21744;-81
2021/12/12 04:10:32;;;;;;;79.75;37.40;;;;;;;-3.14;77.48;101905.30;1744114;82;21071;-81
2021/12/12 04:12:58;;;;;;;73.37;37.88;;;;;;;-3.16;77.48;101900.77;1744631;82;21130;-80
2021/12/12 04:15:26;;;;;;;78.40;36.38;;;;;;;-3.21;77.36;101895.19;1744583;82;21178;-81
2021/12/12 04:17:52;;;;;;;77.65;37.28;;;;;;;-3.25;77.27;101902.44;1744664;81;21090;-80
2021/12/12 04:20:32;;;;;;;79.15;36.73;;;;;;;-3.29;77.29;101896.08;1744713;82;21761;-81
2021/12/12 04:22:58;;;;;;;92.57;41.68;;;;;;;-3.31;77.24;101897.59;1709941;82;21573;-81
2021/12/12 04:25:25;;;;;;;84.13;38.83;;;;;;;-3.32;77.32;101900.95;1744631;82;21058;-81
2021/12/12 04:27:52;;;;;;;87.37;41.45;;;;;;;-3.34;77.24;101897.28;1744210;82;21548;-81
2021/12/12 04:30:23;;;;;;;85.80;41.73;;;;;;;-3.35;77.26;101900.63;1712695;82;21102;-81
2021/12/12 04:32:48;;;;;;;76.15;37.10;;;;;;;-3.34;77.31;101907.22;1743851;82;22805;-81
2021/12/12 04:35:25;;;;;;;73.70;36.93;;;;;;;-3.36;77.22;101912.60;1744097;82;21011;-80
2021/12/12 04:37:55;;;;;;;81.17;38.50;;;;;;;-3.41;77.17;101912.52;1744270;81;21121;-81
2021/12/12 04:40:23;;;;;;;81.28;37.50;;;;;;;-3.42;77.19;101916.22;1743308;82;21619;-81
2021/12/12 04:42:52;;;;;;;85.50;39.73;;;;;;;-3.50;77.04;101909.02;1744970;82;21078;-81
2021/12/12 04:46:04;;;;;;;80.45;38.65;;;;;;;-3.59;76.88;101914.53;1744851;82;22294;-81
2021/12/12 04:51:45;;;;;;;95.32;46.25;;;;;;;-3.82;76.87;101917.38;1744123;82;21853;-81
2021/12/12 04:54:40;;;;;;;87.40;44.05;;;;;;;-3.96;76.76;101918.53;1744192;82;21623;-80
2021/12/12 04:57:20;;;;;;;85.17;40.08;;;;;;;-4.05;76.75;101924.02;1744925;82;21126;-81
2021/12/12 04:59:50;;;;;;;83.33;38.70;;;;;;;-4.14;76.86;101921.45;1744647;81;22635;-81
2021/12/12 05:02:51;;;;;;;75.57;38.02;;;;;;;-4.24;76.83;101926.03;1744893;82;21039;-83
2021/12/12 05:05:25;;;;;;;78.52;38.48;;;;;;;-4.30;76.91;101919.88;1743908;82;21070;-81
2021/12/12 05:08:03;;;;;;;76.75;37.10;;;;;;;-4.37;76.97;101924.23;1744358;81;21095;-80
2021/12/12 05:10:46;;;;;;;90.00;41.63;;;;;;;-4.40;77.01;101932.90;1744576;82;21054;-81
2021/12/12 05:13:25;;;;;;;80.85;39.42;;;;;;;-4.41;77.26;101934.57;1744519;82;21814;-80
2021/12/12 05:16:00;;;;;;;84.65;38.85;;;;;;;-4.39;77.50;101922.78;1744514;82;21083;-80
2021/12/12 05:18:30;;;;;;;85.65;38.90;;;;;;;-4.20;77.71;101938.44;1744863;82;21081;-81
2021/12/12 05:21:08;;;;;;;83.60;40.35;;;;;;;-4.05;77.85;101939.45;1712828;82;21631;-80
2021/12/12 05:23:36;;;;;;;82.70;41.18;;;;;;;-3.95;77.91;101942.23;1743859;82;21560;-80
2021/12/12 05:26:19;;;;;;;82.62;40.48;;;;;;;-3.83;77.89;101943.84;1744244;82;21759;-80
2021/12/12 05:28:49;;;;;;;;;;;;;;;-3.76;77.94;101944.62;1746696;81;21517;-80
2021/12/12 05:31:17;;;;;;;94.58;40.15;;;;;;;-3.65;77.81;101948.67;1743458;82;20162;-81
2021/12/12 05:33:44;;;;;;;85.28;41.63;;;;;;;-3.59;77.82;101949.28;1744486;82;21636;-80
2021/12/12 05:36:11;;;;;;;80.90;40.88;;;;;;;-3.52;77.89;101949.15;1744617;82;21094;-81
2021/12/12 05:38:38;;;;;;;84.85;40.55;;;;;;;-3.42;77.89;101952.25;1713493;82;21774;-81
2021/12/12 05:41:06;;;;;;;85.22;39.83;;;;;;;-3.36;77.82;101950.28;1744778;81;21062;-81
2021/12/12 05:43:33;;;;;;;84.50;40.00;;;;;;;-3.33;77.72;101948.93;1744801;82;21385;-81
2021/12/12 05:46:01;;;;;;;86.95;40.58;;;;;;;-3.27;77.66;101958.03;1744660;81;21070;-81
2021/12/12 05:48:27;;;;;;;91.28;43.23;;;;;;;-3.22;77.68;101959.02;1713415;82;21094;-81
2021/12/12 05:50:54;;;;;;;92.82;42.62;;;;;;;-3.20;77.55;101957.89;1744779;82;22418;-81
2021/12/12 05:53:21;;;;;;;90.87;42.58;;;;;;;-3.18;77.52;101961.13;1744777;82;21125;-81
2021/12/12 05:55:48;;;;;;;93.95;42.03;;;;;;;-3.13;77.57;101966.76;1744547;82;21071;-80
2021/12/12 05:58:17;;;;;;;90.35;41.30;;;;;;;-3.09;77.53;101963.72;1744363;82;21517;-80
2021/12/12 06:00:49;;;;;;;92.57;41.92;;;;;;;-3.08;77.45;101967.20;1744574;82;21097;-80
2021/12/12 06:03:20;;;;;;;92.90;43.02;;;;;;;-3.04;77.56;101967.67;1744402;82;21752;-80
2021/12/12 06:05:47;;;;;;;88.87;41.92;;;;;;;-3.00;77.51;101963.34;1744220;82;21086;-80
2021/12/12 06:08:14;;;;;;;94.15;41.98;;;;;;;-2.99;77.37;101959.09;1746776;81;21038;-80
2021/12/12 06:10:42;;;;;;;92.20;42.93;;;;;;;-3.02;77.24;101958.42;1752059;81;21054;-80
2021/12/12 06:13:12;;;;;;;90.05;44.05;;;;;;;-3.13;77.01;101954.78;1723101;81;21085;-80
2021/12/12 06:15:39;;;;;;;91.45;43.30;;;;;;;-3.26;76.75;101967.59;1752356;81;21771;-80
2021/12/12 06:18:06;;;;;;;101.22;44.63;;;;;;;-3.42;76.60;101981.47;1752561;81;21078;-80
2021/12/12 06:20:33;;;;;;;96.55;44.85;;;;;;;-3.55;76.63;101979.71;1700671;83;21757;-79
2021/12/12 06:22:59;;;;;;;97.78;42.93;;;;;;;-3.67;76.64;101973.34;1718530;83;21098;-80
2021/12/12 06:25:26;;;;;;;93.58;43.17;;;;;;;-3.78;76.66;101980.86;1718527;83;21591;-80
2021/12/12 06:27:53;;;;;;;93.75;44.45;;;;;;;-3.85;76.78;101977.51;1718624;81;21803;-81
2021/12/12 06:30:22;;;;;;;94.30;43.35;;;;;;;-3.93;76.86;101968.63;1718802;83;21074;-81
2021/12/12 06:32:49;;;;;;;93.52;43.85;;;;;;;-3.95;77.03;101971.81;1718744;83;21166;-81
2021/12/12 06:35:16;;;;;;;104.58;48.58;;;;;;;-3.94;77.12;101985.22;1718941;81;21050;-80
2021/12/12 06:37:43;;;;;;;117.53;50.35;;;;;;;-3.96;77.19;101978.63;1718851;83;21809;-80
2021/12/12 06:40:13;;;;;;;117.87;51.05;;;;;;;-3.93;77.26;101975.45;1718964;83;21729;-81
2021/12/12 06:42:40;;;;;;;120.82;50.10;;;;;;;-3.90;77.29;101979.63;1743770;81;21871;-82
2021/12/12 06:45:08;;;;;;;125.47;54.15;;;;;;;-3.89;77.25;101980.53;1752602;81;21634;-81
2021/12/12 06:47:35;;;;;;;116.57;51.68;;;;;;;-3.88;77.27;101975.55;1752595;81;21101;-83
2021/12/12 06:50:03;;;;;;;109.75;50.98;;;;;;;-3.86;77.25;101973.14;1752716;81;21089;-82
2021/12/12 06:52:30;;;;;;;104.45;48.80;;;;;;;-3.82;77.34;101971.41;1699893;81;21728;-83
2021/12/12 06:54:57;;;;;;;115.03;48.63;;;;;;;-3.78;77.34;101975.72;1723445;81;21572;-82
2021/12/12 06:57:24;;;;;;;105.32;46.20;;;;;;;-3.75;77.25;101976.42;1753285;81;21062;-80
2021/12/12 06:59:51;;;;;;;99.95;45.50;;;;;;;-3.78;77.13;101979.58;1752782;81;21070;-82
2021/12/12 07:02:18;;;;;;;97.33;43.63;;;;;;;-3.75;77.16;101992.77;1753362;81;21062;-86
2021/12/12 07:04:45;;;;;;;96.85;43.05;;;;;;;-3.75;77.12;101985.05;1753240;81;22581;-82
2021/12/12 07:07:13;;;;;;;98.25;47.08;;;;;;;-3.74;77.12;101989.42;1753019;81;21481;-83
2021/12/12 07:09:43;;;;;;;92.80;42.38;;;;;;;-3.74;77.08;101995.85;1741144;81;21123;-82
2021/12/12 07:12:12;;;;;;;94.97;44.63;;;;;;;-3.73;77.11;101998.08;1738114;82;21070;-82
2021/12/12 07:14:39;;;;;;;93.07;43.58;;;;;;;-3.74;77.07;101986.84;1738417;82;21553;-83
2021/12/12 07:17:06;;;;;;;89.92;42.13;;;;;;;-3.71;77.23;101984.59;1738087;82;21733;-81
2021/12/12 07:19:32;;;;;;;91.45;42.67;;;;;;;-3.62;77.34;101988.50;1737884;81;21486;-81
2021/12/12 07:21:59;;;;;;;98.10;45.33;;;;;;;-3.55;77.38;101993.86;1738010;81;21058;-82
2021/12/12 07:24:26;;;;;;;102.00;45.38;;;;;;;-3.47;77.43;101996.86;1738295;82;21099;-83
2021/12/12 07:26:53;;;;;;;100.25;44.50;;;;;;;-3.38;77.46;101995.22;1738023;82;21290;-83
2021/12/12 07:29:20;;;;;;;100.05;46.75;;;;;;;-3.28;77.53;102000.00;1738223;82;22007;-83
2021/12/12 07:31:47;;;;;;;106.32;46.20;;;;;;;-3.17;77.55;102003.27;1737843;81;21142;-83
2021/12/12 07:34:15;;;;;;;101.00;45.58;;;;;;;-3.08;77.53;102004.16;1737574;82;21130;-83
2021/12/12 07:36:46;;;;;;;95.28;43.15;;;;;;;-2.99;77.51;101999.02;1710823;82;21063;-90
2021/12/12 07:39:14;;;;;;;96.25;44.18;;;;;;;-2.91;77.55;101996.81;1738612;82;21082;-88
2021/12/12 07:41:42;;;;;;;96.95;43.40;;;;;;;-2.80;77.47;101988.86;1737801;82;22661;-82
2021/12/12 07:44:13;;;;;;;92.65;42.73;;;;;;;-2.74;77.42;101988.16;1737382;82;21146;-82
2021/12/12 07:46:40;;;;;;;99.62;44.38;;;;;;;-2.64;77.41;101999.92;1737844;82;21658;-83
2021/12/12 07:49:07;;;;;;;92.60;42.60;;;;;;;-2.59;77.31;102002.58;1737968;82;21031;-83
2021/12/12 07:51:34;;;;;;;101.50;45.52;;;;;;;-2.51;77.28;102003.71;1738281;82;21138;-83
2021/12/12 07:54:02;;;;;;;96.15;45.58;;;;;;;-2.51;77.24;101992.11;1738191;81;21764;-82
2021/12/12 07:56:31;;;;;;;103.07;47.60;;;;;;;-2.38;77.17;102003.75;1737681;82;21134;-83
2021/12/12 07:58:59;;;;;;;104.35;50.65;;;;;;;-2.33;77.09;102013.20;1710543;82;21098;-82
2021/12/12 08:01:25;;;;;;;103.42;47.88;;;;;;;-2.30;77.05;102008.35;1737497;82;21148;-82
2021/12/12 08:03:54;;;;;;;96.80;45.50;;;;;;;-2.26;77.06;102006.98;1737621;81;21122;-83
2021/12/12 08:06:20;;;;;;;97.75;47.55;;;;;;;-2.22;77.05;102006.12;1738049;81;22598;-83
2021/12/12 08:08:47;;;;;;;93.87;45.28;;;;;;;-2.12;77.20;102018.26;1737847;82;21524;-84
2021/12/12 08:11:18;;;;;;;97.37;45.80;;;;;;;-2.03;77.37;102015.23;1741231;81;21637;-83
2021/12/12 08:13:44;;;;;;;94.95;42.30;;;;;;;-1.91;77.23;102010.36;1753142;80;21098;-81
2021/12/12 08:16:13;;;;;;;96.95;43.17;;;;;;;-1.84;77.11;102006.31;1753800;81;21604;-86
2021/12/12 08:18:39;;;;;;;91.17;43.95;;;;;;;-1.76;76.98;101998.90;1753627;81;21741;-85
2021/12/12 08:21:06;;;;;;;101.75;47.55;;;;;;;-1.71;76.90;102001.00;1753386;81;21089;-82
2021/12/12 08:23:33;;;;;;;104.17;48.75;;;;;;;-1.65;76.91;102000.27;1753385;80;21738;-81
2021/12/12 08:26:01;;;;;;;104.65;47.95;;;;;;;-1.59;76.96;102003.06;1753269;80;21129;-80
2021/12/12 08:28:27;;;;;;;99.62;45.00;;;;;;;-1.50;76.87;102007.27;1753288;81;21670;-81
2021/12/12 08:30:54;;;;;;;98.97;45.40;;;;;;;-1.44;76.93;101998.43;1728123;81;22580;-80
2021/12/12 08:33:21;;;;;;;99.07;47.55;;;;;;;-1.32;76.99;102013.24;1753616;81;21057;-81
2021/12/12 08:35:47;;;;;;;102.05;47.88;;;;;;;-1.26;76.83;102020.27;1692599;82;21063;-82
2021/12/12 08:38:15;;;;;;;98.75;49.60;;;;;;;-1.22;76.78;102018.48;1742062;82;21703;-81
2021/12/12 08:40:47;;;;;;;105.65;50.05;;;;;;;-1.14;76.82;102011.08;1733193;82;21037;-82
2021/12/12 08:43:16;;;;;;;97.75;47.00;;;;;;;-1.06;76.86;102015.26;1695580;83;21795;-82
2021/12/12 08:45:55;;;;;;;92.12;43.58;;;;;;;-0.99;76.74;102019.33;1723343;83;21069;-82
2021/12/12 08:48:24;;;;;;;87.27;44.03;;;;;;;-0.89;76.76;102016.80;1725435;82;21082;-81
2021/12/12 08:50:55;;;;;;;98.42;46.58;;;;;;;-0.77;76.70;102010.93;1732211;82;21104;-81
2021/12/12 08:53:22;;;;;;;92.78;45.08;;;;;;;-0.64;76.72;102019.02;1731264;82;21171;-81
2021/12/12 08:55:50;;;;;;;93.17;44.23;;;;;;;-0.55;76.53;102015.08;1726700;82;22606;-82
2021/12/12 08:58:21;;;;;;;94.52;44.33;;;;;;;-0.49;76.51;102015.61;1737360;82;21120;-82
2021/12/12 09:01:00;;;;;;;93.75;44.63;;;;;;;-0.37;76.62;102014.14;1722881;83;21085;-82
2021/12/12 09:03:54;;;;;;;111.17;51.37;;;;;;;-0.28;76.46;102011.08;1704391;82;21548;-86
2021/12/12 09:06:28;;;;;;;137.10;63.05;;;;;;;-0.24;76.34;102006.69;1707524;83;21094;-81
2021/12/12 09:08:58;;;;;;;;;;;;;;;-0.23;76.27;102002.02;1721662;82;21776;-82
2021/12/12 09:11:52;;;;;;;115.97;55.70;;;;;;;-0.24;76.16;102001.52;1737687;82;20505;-84
2021/12/12 09:14:29;;;;;;;106.87;52.15;;;;;;;-0.23;76.14;101995.95;1743040;82;21561;-82
2021/12/12 09:17:10;;;;;;;98.78;50.25;;;;;;;-0.22;76.12;101997.38;1727800;82;21076;-81
2021/12/12 09:19:51;;;;;;;107.63;49.50;;;;;;;-0.20;76.20;101995.83;1718890;83;21112;-80
2021/12/12 09:22:33;;;;;;;97.20;47.98;;;;;;;-0.10;76.30;101999.23;1740126;82;21781;-83
2021/12/12 09:25:11;;;;;;;84.45;42.17;;;;;;;-0.04;76.26;101994.22;1720076;83;21588;-81
2021/12/12 09:27:44;;;;;;;87.35;42.10;;;;;;;0.04;76.26;101994.89;1737105;82;21210;-83
2021/12/12 09:30:23;;;;;;;86.95;41.18;;;;;;;0.08;76.12;101995.67;1744017;82;21121;-80
2021/12/12 09:33:19;;;;;;;86.78;42.80;;;;;;;0.10;76.18;101991.53;1744386;82;21133;-82
2021/12/12 09:35:53;;;;;;;95.25;44.30;;;;;;;0.07;76.15;101979.60;1744724;82;21989;-82
2021/12/12 09:38:29;;;;;;;93.55;43.50;;;;;;;0.23;76.17;101995.20;1744052;82;21130;-81
2021/12/12 09:41:26;;;;;;;94.58;45.03;;;;;;;0.31;76.29;101991.57;1744519;82;21102;-80
2021/12/12 09:44:04;;;;;;;88.65;42.23;;;;;;;0.40;76.28;101984.59;1744208;82;21066;-81
2021/12/12 09:46:58;;;;;;;90.55;42.80;;;;;;;0.49;76.33;101993.16;1740230;82;21106;-81
2021/12/12 09:52:59;;;;;;;97.88;46.53;;;;;;;0.65;76.40;101994.05;1717433;82;21098;-81
2021/12/12 09:55:56;;;;;;;88.33;41.73;;;;;;;0.69;76.19;101992.23;1744035;82;21077;-80
2021/12/12 09:58:51;;;;;;;92.47;43.52;;;;;;;0.76;76.34;101996.27;1743506;82;21097;-79
2021/12/12 10:01:27;;;;;;;99.22;44.55;;;;;;;0.84;76.35;101999.50;1743858;81;21541;-79
2021/12/12 10:04:17;;;;;;;85.10;43.45;;;;;;;0.89;76.31;102004.29;1743873;82;21769;-79
2021/12/12 10:07:16;;;;;;;85.90;42.50;;;;;;;0.97;76.24;102001.04;1743291;82;21556;-79
2021/12/12 10:09:53;;;;;;;84.50;43.00;;;;;;;1.07;76.41;101997.52;1739607;81;21603;-79
2021/12/12 10:12:27;;;;;;;100.42;50.12;;;;;;;1.16;76.31;101994.03;1736931;82;21108;-79
2021/12/12 10:15:05;;;;;;;;;;;;;;;1.21;76.27;101995.69;1739706;82;21095;-79
2021/12/12 10:18:11;;;;;;;86.40;42.40;;;;;;;1.26;76.24;101987.91;1737103;81;22571;-80
2021/12/12 10:20:55;;;;;;;91.63;43.38;;;;;;;1.31;76.24;101986.98;1737371;82;21060;-80
2021/12/12 10:24:06;;;;;;;105.15;49.60;;;;;;;1.39;76.23;101994.08;1734809;82;21090;-80
2021/12/12 10:26:43;;;;;;;84.92;42.30;;;;;;;1.32;76.13;101979.72;1656721;86;21723;-80
2021/12/12 10:29:23;;;;;;;122.37;57.08;;;;;;;1.49;76.29;101996.67;1656824;86;21646;-81
2021/12/12 10:31:57;;;;;;;145.35;65.57;;;;;;;1.57;76.27;102003.77;1700594;82;21784;-80
2021/12/12 10:34:34;;;;;;;140.25;62.95;;;;;;;1.63;76.26;101999.07;1737915;82;21138;-80
2021/12/12 10:37:26;;;;;;;128.15;58.23;;;;;;;1.71;76.21;101996.73;1737795;82;21082;-80
2021/12/12 10:40:12;;;;;;;130.67;59.33;;;;;;;1.78;76.24;101996.81;1737388;82;21106;-80
2021/12/12 10:42:45;;;;;;;106.83;50.95;;;;;;;1.85;76.21;101995.22;1736488;82;22263;-80
2021/12/12 10:45:23;;;;;;;91.78;46.35;;;;;;;1.92;76.17;101994.94;1737193;82;21928;-80
2021/12/12 10:48:08;;;;;;;76.53;39.58;;;;;;;1.99;76.18;101995.95;1731878;82;21078;-80
2021/12/12 10:51:15;;;;;;;81.02;40.80;;;;;;;2.08;76.12;101996.67;1737257;82;21552;-82
2021/12/12 10:54:13;;;;;;;93.00;43.87;;;;;;;2.14;75.97;101997.15;1737265;82;21082;-80
2021/12/12 10:56:54;;;;;;;95.17;42.75;;;;;;;2.20;75.85;101989.34;1737150;82;21686;-81
2021/12/12 10:59:44;;;;;;;101.00;45.38;;;;;;;2.20;75.83;101985.44;1737133;82;22578;-81
2021/12/12 11:02:14;;;;;;;90.22;40.85;;;;;;;2.29;75.95;101986.13;1737055;82;21540;-80
2021/12/12 11:04:51;;;;;;;87.55;41.90;;;;;;;2.43;75.98;101986.82;1737320;82;21293;-81
2021/12/12 11:07:25;;;;;;;82.65;40.08;;;;;;;2.58;75.99;101983.61;1735589;82;21051;-81
2021/12/12 11:12:42;;;;;;;81.00;39.48;;;;;;;2.79;75.56;101975.23;1771183;80;22510;-81
2021/12/12 11:15:38;;;;;;;80.32;38.00;;;;;;;2.82;75.38;101984.17;1752332;81;21114;-80
2021/12/12 11:18:19;;;;;;;88.62;44.58;;;;;;;2.90;75.21;101983.45;1752373;81;21830;-81
2021/12/12 11:21:05;;;;;;;89.90;46.68;;;;;;;2.80;74.67;101973.16;1751069;81;21090;-81
2021/12/12 11:23:39;;;;;;;96.08;48.73;;;;;;;2.66;74.52;101970.39;1753045;81;21117;-81
2021/12/12 11:26:25;;;;;;;94.55;46.63;;;;;;;2.58;74.62;101969.31;1752503;81;21106;-80
2021/12/12 11:28:56;;;;;;;92.33;44.88;;;;;;;2.58;74.85;101970.20;1752723;81;21118;-81
2021/12/12 11:31:32;;;;;;;107.65;53.30;;;;;;;2.57;74.74;101976.58;1752922;81;21750;-80
2021/12/12 11:33:56;;;;;;;110.42;51.33;;;;;;;2.47;74.62;101975.87;1751658;81;21119;-80
2021/12/12 11:36:33;;;;;;;114.20;54.55;;;;;;;2.39;74.57;101977.38;1752705;81;21052;-79
2021/12/12 11:39:26;;;;;;;94.62;48.15;;;;;;;2.29;74.49;101973.14;1752845;81;21077;-80
2021/12/12 11:42:04;;;;;;;86.97;42.93;;;;;;;2.23;74.65;101973.97;1752238;81;21678;-81
2021/12/12 11:44:41;;;;;;;79.37;39.75;;;;;;;2.19;74.68;101973.22;1736252;81;21793;-81
2021/12/12 11:47:48;;;;;;;83.12;38.65;;;;;;;2.16;74.74;101975.56;1714303;81;21078;-80
2021/12/12 11:50:21;;;;;;;79.87;38.78;;;;;;;2.12;74.63;101974.05;1752628;81;21110;-80
2021/12/12 11:53:13;;;;;;;80.92;41.48;;;;;;;1.84;74.58;101944.06;1752912;81;21070;-82
2021/12/12 11:55:50;;;;;;;78.65;39.13;;;;;;;1.97;74.60;101989.72;1752231;81;21090;-81
2021/12/12 11:58:30;;;;;;;84.37;42.65;;;;;;;1.96;74.78;101994.39;1723855;81;22116;-81
2021/12/12 12:01:28;;;;;;;78.07;38.95;;;;;;;1.97;74.80;101992.69;1730220;82;21570;-81